Time;durP1;ratioP1;P1;durP2;ratioP2;P2;SDS_P1;SDS_P2;PMS_P1;PMS_P2;Temp;Humidity;BMP_temperature;BMP_pressure;BME280_temperature;BME280_humidity;BME280_pressure;Samples;Min_cycle;Max_cycle;Signal;HPM_P1;HPM_P2
2022/07/07 00:00:35;;;;;;;;;;;;;;;;;;5055304;28;19982;-83
2022/07/07 00:03:00;;;;;;;;;;;;;;;;;;5057806;28;20258;-83
2022/07/07 00:05:26;;;;;;;;;;;;;;;;;;5057715;28;19917;-82
2022/07/07 00:07:51;;;;;;;;;;;;;;;;;;5057613;28;19917;-83
2022/07/07 00:10:16;;;;;;;;;;;;;;;;;;5057676;28;19917;-83
2022/07/07 00:12:42;;;;;;;;;;;;;;;;;;5062600;28;19959;-83
2022/07/07 00:15:08;;;;;;;;;;;;;;;;;;5064363;28;20216;-82
2022/07/07 00:17:33;;;;;;;;;;;;;;;;;;5057483;28;19917;-82
2022/07/07 00:19:58;;;;;;;;;;;;;;;;;;5057227;28;19990;-83
2022/07/07 00:22:24;;;;;;;;;;;;;;;;;;5057462;28;19924;-83
2022/07/07 00:24:49;;;;;;;;;;;;;;;;;;5056072;28;19960;-82
2022/07/07 00:27:14;;;;;;;;;;;;;;;;;;5057731;28;19921;-83
2022/07/07 00:29:43;;;;;;;;;;;;;;;;;;5039635;28;19917;-83
2022/07/07 00:32:09;;;;;;;;;;;;;;;;;;5057288;28;19924;-82
2022/07/07 00:34:34;;;;;;;;;;;;;;;;;;5065314;28;19925;-82
2022/07/07 00:37:00;;;;;;;;;;;;;;;;;;5057038;28;19924;-82
2022/07/07 00:39:25;;;;;;;;;;;;;;;;;;5057233;28;19955;-82
2022/07/07 00:41:51;;;;;;;;;;;;;;;;;;5056991;28;19921;-82
2022/07/07 00:44:20;;;;;;;;;;;;;;;;;;5056966;28;19917;-82
2022/07/07 00:46:46;;;;;;;;;;;;;;;;;;5039295;28;19923;-82
2022/07/07 00:49:11;;;;;;;;;;;;;;;;;;5057434;28;19916;-82
2022/07/07 00:51:37;;;;;;;;;;;;;;;;;;5039374;28;19921;-81
2022/07/07 00:54:02;;;;;;;;;;;;;;;;;;5029129;28;19927;-81
2022/07/07 00:56:28;;;;;;;;;;;;;;;;;;5058970;28;19917;-82
2022/07/07 00:58:53;;;;;;;;;;;;;;;;;;5056925;28;19916;-83
2022/07/07 01:01:18;;;;;;;;;;;;;;;;;;5056596;28;19940;-82
2022/07/07 01:03:44;;;;;;;;;;;;;;;;;;5056861;28;19917;-82
2022/07/07 01:06:09;;;;;;;;;;;;;;;;;;5039004;28;19925;-82
2022/07/07 01:08:34;;;;;;;;;;;;;;;;;;5039083;28;19959;-81
2022/07/07 01:11:00;;;;;;;;;;;;;;;;;;5056587;28;19917;-82
2022/07/07 01:13:25;;;;;;;;;;;;;;;;;;5056603;28;20250;-81
2022/07/07 01:15:50;;;;;;;;;;;;;;;;;;5065278;28;19974;-82
2022/07/07 01:18:16;;;;;;;;;;;;;;;;;;5056327;28;20061;-82
2022/07/07 01:20:42;;;;;;;;;;;;;;;;;;5056786;28;19974;-82
2022/07/07 01:23:07;;;;;;;;;;;;;;;;;;5038713;28;19917;-82
2022/07/07 01:25:32;;;;;;;;;;;;;;;;;;5056710;28;19916;-82
2022/07/07 01:27:58;;;;;;;;;;;;;;;;;;5056316;28;19924;-82
2022/07/07 01:30:23;;;;;;;;;;;;;;;;;;5055954;28;19971;-82
2022/07/07 01:32:48;;;;;;;;;;;;;;;;;;5056318;28;19916;-82
2022/07/07 01:35:14;;;;;;;;;;;;;;;;;;5062448;28;19974;-81
2022/07/07 01:37:39;;;;;;;;;;;;;;;;;;5058734;28;19974;-82
2022/07/07 01:40:05;;;;;;;;;;;;;;;;;;5037769;28;19916;-82
2022/07/07 01:42:30;;;;;;;;;;;;;;;;;;5055754;28;19920;-82
2022/07/07 01:44:55;;;;;;;;;;;;;;;;;;5055661;28;19921;-82
2022/07/07 01:47:21;;;;;;;;;;;;;;;;;;5037543;28;19917;-82
2022/07/07 01:49:46;;;;;;;;;;;;;;;;;;5055423;28;19913;-81
2022/07/07 01:52:12;;;;;;;;;;;;;;;;;;5037817;28;19924;-81
2022/07/07 01:54:37;;;;;;;;;;;;;;;;;;5056327;28;19912;-80
2022/07/07 01:57:03;;;;;;;;;;;;;;;;;;5047543;28;20034;-83
2022/07/07 01:59:28;;;;;;;;;;;;;;;;;;5055493;28;19939;-81
2022/07/07 02:01:53;;;;;;;;;;;;;;;;;;5055442;28;19917;-81
2022/07/07 02:04:19;;;;;;;;;;;;;;;;;;5055437;28;19917;-81
2022/07/07 02:06:44;;;;;;;;;;;;;;;;;;5037478;28;20289;-82
2022/07/07 02:09:10;;;;;;;;;;;;;;;;;;5054951;28;19917;-82
2022/07/07 02:11:35;;;;;;;;;;;;;;;;;;5055538;28;20268;-81
2022/07/07 02:14:01;;;;;;;;;;;;;;;;;;5054614;28;19917;-83
2022/07/07 02:16:26;;;;;;;;;;;;;;;;;;5065063;28;19916;-83
2022/07/07 02:18:53;;;;;;;;;;;;;;;;;;5057356;28;19917;-82
2022/07/07 02:21:19;;;;;;;;;;;;;;;;;;5054735;28;19974;-82
2022/07/07 02:23:45;;;;;;;;;;;;;;;;;;5054318;28;19916;-82
2022/07/07 02:26:10;;;;;;;;;;;;;;;;;;5055049;28;19916;-82
2022/07/07 02:28:35;;;;;;;;;;;;;;;;;;5054751;28;20327;-81
2022/07/07 02:31:01;;;;;;;;;;;;;;;;;;5037163;28;19917;-81
2022/07/07 02:33:26;;;;;;;;;;;;;;;;;;5055168;28;20015;-81
2022/07/07 02:35:52;;;;;;;;;;;;;;;;;;5039584;28;19960;-82
2022/07/07 02:38:17;;;;;;;;;;;;;;;;;;5061271;28;20291;-82
2022/07/07 02:40:43;;;;;;;;;;;;;;;;;;5054770;28;20226;-81
2022/07/07 02:43:12;;;;;;;;;;;;;;;;;;5054508;28;20023;-81
2022/07/07 02:45:45;;;;;;;;;;;;;;;;;;5054351;28;19976;-82
2022/07/07 02:48:10;;;;;;;;;;;;;;;;;;5054721;28;19928;-81
2022/07/07 02:50:36;;;;;;;;;;;;;;;;;;5054715;28;20261;-81
2022/07/07 02:53:02;;;;;;;;;;;;;;;;;;5054390;28;20261;-81
2022/07/07 02:55:30;;;;;;;;;;;;;;;;;;5054653;28;20025;-82
2022/07/07 02:57:56;;;;;;;;;;;;;;;;;;5067186;28;19921;-82
2022/07/07 03:00:21;;;;;;;;;;;;;;;;;;5054306;28;19924;-81
2022/07/07 03:02:46;;;;;;;;;;;;;;;;;;5054311;28;19916;-81
2022/07/07 03:05:12;;;;;;;;;;;;;;;;;;5054564;28;19917;-82
2022/07/07 03:07:37;;;;;;;;;;;;;;;;;;5054184;28;20301;-82
2022/07/07 03:10:04;;;;;;;;;;;;;;;;;;5036882;28;19925;-82
2022/07/07 03:12:29;;;;;;;;;;;;;;;;;;5054284;28;19995;-82
2022/07/07 03:14:54;;;;;;;;;;;;;;;;;;5054618;28;19952;-82
2022/07/07 03:17:20;;;;;;;;;;;;;;;;;;5060587;28;19921;-82
2022/07/07 03:19:45;;;;;;;;;;;;;;;;;;5059134;28;19924;-83
2022/07/07 03:22:10;;;;;;;;;;;;;;;;;;5036558;28;19924;-82
2022/07/07 03:24:36;;;;;;;;;;;;;;;;;;5054368;28;19917;-83
2022/07/07 03:27:01;;;;;;;;;;;;;;;;;;5053618;28;19917;-83
2022/07/07 03:29:26;;;;;;;;;;;;;;;;;;5054258;28;19917;-83
2022/07/07 03:31:52;;;;;;;;;;;;;;;;;;5054327;28;19917;-83
2022/07/07 03:34:17;;;;;;;;;;;;;;;;;;5054618;28;19974;-83
2022/07/07 03:36:42;;;;;;;;;;;;;;;;;;5057322;28;20388;-81
2022/07/07 03:39:08;;;;;;;;;;;;;;;;;;5072164;28;19920;-84
2022/07/07 03:41:33;;;;;;;;;;;;;;;;;;5039868;28;20355;-83
2022/07/07 03:43:58;;;;;;;;;;;;;;;;;;5057812;28;20015;-83
2022/07/07 03:46:24;;;;;;;;;;;;;;;;;;5058092;28;19923;-83
2022/07/07 03:48:49;;;;;;;;;;;;;;;;;;5058111;28;19917;-84
2022/07/07 03:51:14;;;;;;;;;;;;;;;;;;5058080;28;20255;-83
2022/07/07 03:53:40;;;;;;;;;;;;;;;;;;5058171;28;20263;-83
2022/07/07 03:56:05;;;;;;;;;;;;;;;;;;5039586;28;20251;-83
2022/07/07 03:58:31;;;;;;;;;;;;;;;;;;5062674;28;19917;-83
2022/07/07 04:00:56;;;;;;;;;;;;;;;;;;5041234;28;20408;-84
2022/07/07 04:03:21;;;;;;;;;;;;;;;;;;5057819;28;20297;-81
2022/07/07 04:05:47;;;;;;;;;;;;;;;;;;5057637;28;19995;-81
2022/07/07 04:08:12;;;;;;;;;;;;;;;;;;5057499;28;20358;-82
2022/07/07 04:10:37;;;;;;;;;;;;;;;;;;5057873;28;19947;-83
2022/07/07 04:13:02;;;;;;;;;;;;;;;;;;5057809;28;19916;-81
2022/07/07 04:15:28;;;;;;;;;;;;;;;;;;5057642;28;19917;-81
2022/07/07 04:17:53;;;;;;;;;;;;;;;;;;5061016;28;19916;-81
2022/07/07 04:20:18;;;;;;;;;;;;;;;;;;5068326;28;19951;-82
2022/07/07 04:22:44;;;;;;;;;;;;;;;;;;5057468;28;19917;-82
2022/07/07 04:25:09;;;;;;;;;;;;;;;;;;5056931;28;19924;-82
2022/07/07 04:27:35;;;;;;;;;;;;;;;;;;5057031;28;20388;-82
2022/07/07 04:30:00;;;;;;;;;;;;;;;;;;5056953;28;19924;-82
2022/07/07 04:32:25;;;;;;;;;;;;;;;;;;5056984;28;20011;-82
2022/07/07 04:34:50;;;;;;;;;;;;;;;;;;5057114;28;19975;-81
2022/07/07 04:37:16;;;;;;;;;;;;;;;;;;5057135;28;19924;-82
2022/07/07 04:39:41;;;;;;;;;;;;;;;;;;5066191;28;19951;-82
2022/07/07 04:42:07;;;;;;;;;;;;;;;;;;5058441;28;19921;-82
2022/07/07 04:44:32;;;;;;;;;;;;;;;;;;5039237;28;19917;-82
2022/07/07 04:46:57;;;;;;;;;;;;;;;;;;5056510;28;20349;-82
2022/07/07 04:49:22;;;;;;;;;;;;;;;;;;5057208;28;20251;-83
2022/07/07 04:51:48;;;;;;;;;;;;;;;;;;5056612;28;19917;-82
2022/07/07 04:54:13;;;;;;;;;;;;;;;;;;5056345;28;19917;-83
2022/07/07 04:56:39;;;;;;;;;;;;;;;;;;5056452;28;19924;-82
2022/07/07 04:59:04;;;;;;;;;;;;;;;;;;5058584;28;19924;-83
2022/07/07 05:01:29;;;;;;;;;;;;;;;;;;5065876;28;19917;-82
2022/07/07 05:03:54;;;;;;;;;;;;;;;;;;5056257;28;19917;-83
2022/07/07 05:06:20;;;;;;;;;;;;;;;;;;5056740;28;20015;-85
2022/07/07 05:08:45;;;;;;;;;;;;;;;;;;5056117;28;19916;-85
2022/07/07 05:11:10;;;;;;;;;;;;;;;;;;5056846;28;19951;-84
2022/07/07 05:13:37;;;;;;;;;;;;;;;;;;5057046;28;20295;-86
2022/07/07 05:16:02;;;;;;;;;;;;;;;;;;5060466;28;19951;-83
2022/07/07 05:18:29;;;;;;;;;;;;;;;;;;5044872;28;19972;-84
2022/07/07 05:20:55;;;;;;;;;;;;;;;;;;5063295;28;19939;-83
2022/07/07 05:23:20;;;;;;;;;;;;;;;;;;5059367;28;19917;-84
2022/07/07 05:25:46;;;;;;;;;;;;;;;;;;5057307;28;19917;-84
2022/07/07 05:28:11;;;;;;;;;;;;;;;;;;5039229;28;19923;-82
2022/07/07 05:30:37;;;;;;;;;;;;;;;;;;5055528;28;19924;-82
2022/07/07 05:33:02;;;;;;;;;;;;;;;;;;5057909;28;19928;-83
2022/07/07 05:35:28;;;;;;;;;;;;;;;;;;5055953;28;19916;-84
2022/07/07 05:37:53;;;;;;;;;;;;;;;;;;5056057;28;20409;-82
2022/07/07 05:40:19;;;;;;;;;;;;;;;;;;5038646;28;19943;-83
2022/07/07 05:42:44;;;;;;;;;;;;;;;;;;5063425;28;19921;-84
2022/07/07 05:45:13;;;;;;;;;;;;;;;;;;5038163;28;19924;-83
2022/07/07 05:47:38;;;;;;;;;;;;;;;;;;5056189;28;19913;-82
2022/07/07 05:50:05;;;;;;;;;;;;;;;;;;5057542;28;19917;-83
2022/07/07 05:52:30;;;;;;;;;;;;;;;;;;5055965;28;20000;-83
2022/07/07 05:54:56;;;;;;;;;;;;;;;;;;5056171;28;20271;-83
2022/07/07 05:57:40;;;;;;;;;;;;;;;;;;5058350;28;19917;-85
2022/07/07 06:00:07;;;;;;;;;;;;;;;;;;5059054;28;19913;-80
2022/07/07 06:02:32;;;;;;;;;;;;;;;;;;5049820;28;19920;-83
2022/07/07 06:04:57;;;;;;;;;;;;;;;;;;5058256;28;19983;-83
2022/07/07 06:07:23;;;;;;;;;;;;;;;;;;5056871;28;19956;-84
2022/07/07 06:09:48;;;;;;;;;;;;;;;;;;5056079;28;19917;-83
2022/07/07 06:12:14;;;;;;;;;;;;;;;;;;5056552;28;20384;-83
2022/07/07 06:14:39;;;;;;;;;;;;;;;;;;5056301;28;19923;-80
2022/07/07 06:17:05;;;;;;;;;;;;;;;;;;5055795;28;19924;-81
2022/07/07 06:19:30;;;;;;;;;;;;;;;;;;5055646;28;19978;-82
2022/07/07 06:21:55;;;;;;;;;;;;;;;;;;5057620;28;19916;-81
2022/07/07 06:24:21;;;;;;;;;;;;;;;;;;5046544;28;20239;-82
2022/07/07 06:26:46;;;;;;;;;;;;;;;;;;5037307;28;19916;-83
2022/07/07 06:29:14;;;;;;;;;;;;;;;;;;5055497;28;20319;-82
2022/07/07 06:31:39;;;;;;;;;;;;;;;;;;5056070;28;19924;-82
2022/07/07 06:34:05;;;;;;;;;;;;;;;;;;5055133;28;19917;-81
2022/07/07 06:36:30;;;;;;;;;;;;;;;;;;5055318;28;19940;-82
2022/07/07 06:38:56;;;;;;;;;;;;;;;;;;5055170;28;20261;-81
2022/07/07 06:41:22;;;;;;;;;;;;;;;;;;5037916;28;19963;-82
2022/07/07 06:43:47;;;;;;;;;;;;;;;;;;5046998;28;19971;-82
2022/07/07 06:46:12;;;;;;;;;;;;;;;;;;5055331;28;20346;-81
2022/07/07 06:48:38;;;;;;;;;;;;;;;;;;5054531;28;20007;-81
2022/07/07 06:51:03;;;;;;;;;;;;;;;;;;5054780;28;19917;-81
2022/07/07 06:53:28;;;;;;;;;;;;;;;;;;5054906;28;20000;-82
2022/07/07 06:55:54;;;;;;;;;;;;;;;;;;5054956;28;20315;-82
2022/07/07 06:58:19;;;;;;;;;;;;;;;;;;5036696;28;20350;-81
2022/07/07 07:00:45;;;;;;;;;;;;;;;;;;5054825;28;19923;-82
2022/07/07 07:03:10;;;;;;;;;;;;;;;;;;5060264;28;19972;-84
2022/07/07 07:05:35;;;;;;;;;;;;;;;;;;5063902;28;19924;-84
2022/07/07 07:08:01;;;;;;;;;;;;;;;;;;5045067;28;19972;-85
2022/07/07 07:10:26;;;;;;;;;;;;;;;;;;5060876;28;19917;-85
2022/07/07 07:12:52;;;;;;;;;;;;;;;;;;5056289;28;19920;-83
2022/07/07 07:15:18;;;;;;;;;;;;;;;;;;5056156;28;20018;-85
2022/07/07 07:17:44;;;;;;;;;;;;;;;;;;5038455;28;19920;-88
2022/07/07 07:20:12;;;;;;;;;;;;;;;;;;5055580;28;20008;-86
2022/07/07 07:22:38;;;;;;;;;;;;;;;;;;5055101;28;19917;-84
2022/07/07 07:25:04;;;;;;;;;;;;;;;;;;5069167;28;19971;-86
2022/07/07 07:27:29;;;;;;;;;;;;;;;;;;5037131;28;19999;-86
2022/07/07 07:29:54;;;;;;;;;;;;;;;;;;5055421;28;19928;-84
2022/07/07 07:32:20;;;;;;;;;;;;;;;;;;5057375;28;19921;-85
2022/07/07 07:34:45;;;;;;;;;;;;;;;;;;5056882;28;19923;-82
2022/07/07 07:37:10;;;;;;;;;;;;;;;;;;5055183;28;20004;-82
2022/07/07 07:39:36;;;;;;;;;;;;;;;;;;5053049;28;20331;-80
2022/07/07 07:42:01;;;;;;;;;;;;;;;;;;5039782;28;19921;-80
2022/07/07 07:47:10;;;;;;;;;;;;;;;;;;5033026;28;19963;-81
2022/07/07 07:49:35;;;;;;;;;;;;;;;;;;5034416;28;19917;-81
2022/07/07 07:52:01;;;;;;;;;;;;;;;;;;5033464;28;20192;-80
2022/07/07 07:54:26;;;;;;;;;;;;;;;;;;5034931;28;19917;-81
2022/07/07 07:56:51;;;;;;;;;;;;;;;;;;5034897;28;19983;-81
2022/07/07 07:59:17;;;;;;;;;;;;;;;;;;5034737;28;20342;-82
2022/07/07 08:01:42;;;;;;;;;;;;;;;;;;5017207;28;20036;-82
2022/07/07 08:04:07;;;;;;;;;;;;;;;;;;5035758;28;19917;-81
2022/07/07 08:06:33;;;;;;;;;;;;;;;;;;5042636;28;20004;-83
2022/07/07 08:08:58;;;;;;;;;;;;;;;;;;5035762;28;20443;-82
2022/07/07 08:11:23;;;;;;;;;;;;;;;;;;5035025;28;19921;-81
2022/07/07 08:13:49;;;;;;;;;;;;;;;;;;5035516;28;19948;-82
2022/07/07 08:16:14;;;;;;;;;;;;;;;;;;5035656;28;19921;-82
2022/07/07 08:18:40;;;;;;;;;;;;;;;;;;5035024;28;20338;-83
2022/07/07 08:21:05;;;;;;;;;;;;;;;;;;5035125;28;20236;-82
2022/07/07 08:23:30;;;;;;;;;;;;;;;;;;5040924;28;20297;-82
2022/07/07 08:25:56;;;;;;;;;;;;;;;;;;5045452;28;20003;-82
2022/07/07 08:28:21;;;;;;;;;;;;;;;;;;5038391;28;20322;-81
2022/07/07 08:30:47;;;;;;;;;;;;;;;;;;5038117;28;19917;-82
2022/07/07 08:33:12;;;;;;;;;;;;;;;;;;5020209;28;19917;-83
2022/07/07 08:35:37;;;;;;;;;;;;;;;;;;5038661;28;19917;-83
2022/07/07 08:38:03;;;;;;;;;;;;;;;;;;5038128;28;19917;-81
2022/07/07 08:40:28;;;;;;;;;;;;;;;;;;5038582;28;19917;-80
2022/07/07 08:42:53;;;;;;;;;;;;;;;;;;5020372;28;20266;-81
2022/07/07 08:45:19;;;;;;;;;;;;;;;;;;5043038;28;20012;-81
2022/07/07 08:47:44;;;;;;;;;;;;;;;;;;5038788;28;19980;-81
2022/07/07 08:50:09;;;;;;;;;;;;;;;;;;5019964;28;19945;-80
2022/07/07 08:52:39;;;;;;;;;;;;;;;;;;5019869;28;20215;-80
2022/07/07 08:55:05;;;;;;;;;;;;;;;;;;5020160;28;19964;-81
2022/07/07 08:57:30;;;;;;;;;;;;;;;;;;5019876;28;19914;-80
2022/07/07 08:59:56;;;;;;;;;;;;;;;;;;5019590;28;19967;-81
2022/07/07 09:02:22;;;;;;;;;;;;;;;;;;5019728;28;19921;-80
2022/07/07 09:04:47;;;;;;;;;;;;;;;;;;5040675;28;19933;-79
2022/07/07 09:07:12;;;;;;;;;;;;;;;;;;5026663;28;19922;-80
2022/07/07 09:09:45;;;;;;;;;;;;;;;;;;5037109;28;19913;-79
2022/07/07 09:12:11;;;;;;;;;;;;;;;;;;5036878;28;19975;-80
2022/07/07 09:14:37;;;;;;;;;;;;;;;;;;5036652;28;19960;-80
2022/07/07 09:17:03;;;;;;;;;;;;;;;;;;5019612;28;20058;-80
2022/07/07 09:19:30;;;;;;;;;;;;;;;;;;5037576;28;19917;-79
2022/07/07 09:21:55;;;;;;;;;;;;;;;;;;5037126;28;19967;-80
2022/07/07 09:24:20;;;;;;;;;;;;;;;;;;5037695;28;19917;-81
2022/07/07 09:26:46;;;;;;;;;;;;;;;;;;5045959;28;19956;-80
2022/07/07 09:29:17;;;;;;;;;;;;;;;;;;5039825;28;19966;-79
2022/07/07 09:31:49;;;;;;;;;;;;;;;;;;5022309;28;19924;-80
2022/07/07 09:34:14;;;;;;;;;;;;;;;;;;5036858;28;19964;-80
2022/07/07 09:39:23;;;;;;;;;;;;;;;;;;5022020;28;19928;-80
2022/07/07 09:41:48;;;;;;;;;;;;;;;;;;5036939;28;19917;-81
2022/07/07 09:44:14;;;;;;;;;;;;;;;;;;5036472;28;19917;-80
2022/07/07 09:46:40;;;;;;;;;;;;;;;;;;5041038;28;20232;-80
2022/07/07 09:49:09;;;;;;;;;;;;;;;;;;5038036;28;19939;-80
2022/07/07 09:51:35;;;;;;;;;;;;;;;;;;5037121;28;19920;-82
2022/07/07 09:54:07;;;;;;;;;;;;;;;;;;5037279;28;19917;-83
2022/07/07 09:56:32;;;;;;;;;;;;;;;;;;5036721;28;19917;-81
2022/07/07 09:58:58;;;;;;;;;;;;;;;;;;5036025;28;19963;-82
2022/07/07 10:01:25;;;;;;;;;;;;;;;;;;5018741;28;19924;-81
2022/07/07 10:03:51;;;;;;;;;;;;;;;;;;5037424;28;19952;-81
2022/07/07 10:06:17;;;;;;;;;;;;;;;;;;5039492;28;20011;-80
2022/07/07 10:08:45;;;;;;;;;;;;;;;;;;5041236;28;19925;-80
2022/07/07 10:11:13;;;;;;;;;;;;;;;;;;5035873;28;19928;-80
2022/07/07 10:13:42;;;;;;;;;;;;;;;;;;5036121;28;20003;-80
2022/07/07 10:16:07;;;;;;;;;;;;;;;;;;5036070;28;19928;-81
2022/07/07 10:18:33;;;;;;;;;;;;;;;;;;5036273;28;19917;-81
2022/07/07 10:20:58;;;;;;;;;;;;;;;;;;5037474;28;20230;-80
2022/07/07 10:23:23;;;;;;;;;;;;;;;;;;5018934;28;20247;-83
2022/07/07 10:25:58;;;;;;;;;;;;;;;;;;5018307;28;19924;-83
2022/07/07 10:28:44;;;;;;;;;;;;;;;;;;5027021;28;19979;-82
2022/07/07 10:31:22;;;;;;;;;;;;;;;;;;5018497;28;19924;-80
2022/07/07 10:33:52;;;;;;;;;;;;;;;;;;5036566;28;19917;-81
2022/07/07 10:36:18;;;;;;;;;;;;;;;;;;5036537;28;20011;-82
2022/07/07 10:38:43;;;;;;;;;;;;;;;;;;5036961;28;19967;-84
2022/07/07 10:41:08;;;;;;;;;;;;;;;;;;5017848;28;19917;-81
2022/07/07 10:43:37;;;;;;;;;;;;;;;;;;5036121;28;19937;-80
2022/07/07 10:46:02;;;;;;;;;;;;;;;;;;5018362;28;19917;-81
2022/07/07 10:48:46;;;;;;;;;;;;;;;;;;5040865;28;19925;-82
2022/07/07 10:51:25;;;;;;;;;;;;;;;;;;5039297;28;20330;-82
2022/07/07 10:53:54;;;;;;;;;;;;;;;;;;5039318;28;19917;-81
2022/07/07 10:56:19;;;;;;;;;;;;;;;;;;5037671;28;19917;-82
2022/07/07 10:58:52;;;;;;;;;;;;;;;;;;5022777;28;20322;-82
2022/07/07 11:01:17;;;;;;;;;;;;;;;;;;5050671;28;19917;-82
2022/07/07 11:03:42;;;;;;;;;;;;;;;;;;5054868;28;19924;-83
2022/07/07 11:06:08;;;;;;;;;;;;;;;;;;5054071;28;19920;-87
2022/07/07 11:08:36;;;;;;;;;;;;;;;;;;5060260;28;19916;-85
2022/07/07 11:11:01;;;;;;;;;;;;;;;;;;5062551;28;19921;-86
2022/07/07 11:13:33;;;;;;;;;;;;;;;;;;5054561;28;20353;-85
2022/07/07 11:16:16;;;;;;;;;;;;;;;;;;5058652;28;19924;-88
2022/07/07 11:18:43;;;;;;;;;;;;;;;;;;5054488;28;20015;-86
2022/07/07 11:21:08;;;;;;;;;;;;;;;;;;5054603;28;20003;-87
2022/07/07 11:23:49;;;;;;;;;;;;;;;;;;5054440;28;20388;-86
2022/07/07 11:26:15;;;;;;;;;;;;;;;;;;5054153;28;20350;-85
2022/07/07 11:28:40;;;;;;;;;;;;;;;;;;5058331;28;19920;-85
2022/07/07 11:31:06;;;;;;;;;;;;;;;;;;5060065;28;19921;-86
2022/07/07 11:33:32;;;;;;;;;;;;;;;;;;5058156;28;19984;-86
2022/07/07 11:35:57;;;;;;;;;;;;;;;;;;5036175;28;19917;-86
2022/07/07 11:38:31;;;;;;;;;;;;;;;;;;5054267;28;19917;-88
2022/07/07 11:40:57;;;;;;;;;;;;;;;;;;5054154;28;19917;-85
2022/07/07 11:43:25;;;;;;;;;;;;;;;;;;5054280;28;19944;-86
2022/07/07 11:45:51;;;;;;;;;;;;;;;;;;5053030;28;19917;-84
2022/07/07 11:48:16;;;;;;;;;;;;;;;;;;5036621;28;19924;-88
2022/07/07 11:50:42;;;;;;;;;;;;;;;;;;5062696;28;19920;-88
2022/07/07 11:53:07;;;;;;;;;;;;;;;;;;5054313;28;20306;-86
2022/07/07 11:55:33;;;;;;;;;;;;;;;;;;5054142;28;19917;-85
2022/07/07 11:57:59;;;;;;;;;;;;;;;;;;5057422;28;19990;-84
2022/07/07 12:00:25;;;;;;;;;;;;;;;;;;5057944;28;20331;-86
2022/07/07 12:02:51;;;;;;;;;;;;;;;;;;5058998;28;19917;-85
2022/07/07 12:05:16;;;;;;;;;;;;;;;;;;5057224;28;19917;-85
2022/07/07 12:07:43;;;;;;;;;;;;;;;;;;5056903;28;19923;-84
2022/07/07 12:10:19;;;;;;;;;;;;;;;;;;5063114;28;19925;-86
2022/07/07 12:12:53;;;;;;;;;;;;;;;;;;5060362;28;19933;-86
2022/07/07 12:15:18;;;;;;;;;;;;;;;;;;5057982;28;19917;-87
2022/07/07 12:17:43;;;;;;;;;;;;;;;;;;5057732;28;19962;-84
2022/07/07 12:20:14;;;;;;;;;;;;;;;;;;5056766;28;19917;-86
2022/07/07 12:22:42;;;;;;;;;;;;;;;;;;5055933;28;20246;-85
2022/07/07 12:25:09;;;;;;;;;;;;;;;;;;5039676;28;20322;-84
2022/07/07 12:27:34;;;;;;;;;;;;;;;;;;5057423;28;19921;-86
2022/07/07 12:30:04;;;;;;;;;;;;;;;;;;5062414;28;19972;-88
2022/07/07 12:32:29;;;;;;;;;;;;;;;;;;5066903;28;20274;-83
2022/07/07 12:34:54;;;;;;;;;;;;;;;;;;5057066;28;19913;-84
2022/07/07 12:37:20;;;;;;;;;;;;;;;;;;5057619;28;19951;-86
2022/07/07 12:39:49;;;;;;;;;;;;;;;;;;5039695;28;19982;-82
2022/07/07 12:42:24;;;;;;;;;;;;;;;;;;5057526;28;19921;-85
2022/07/07 12:44:49;;;;;;;;;;;;;;;;;;5057872;28;20222;-84
2022/07/07 12:47:17;;;;;;;;;;;;;;;;;;5057397;28;19962;-83
2022/07/07 12:49:55;;;;;;;;;;;;;;;;;;5057252;28;19956;-84
2022/07/07 12:52:20;;;;;;;;;;;;;;;;;;5067307;28;19944;-85
2022/07/07 12:54:47;;;;;;;;;;;;;;;;;;5058255;28;20315;-86
2022/07/07 12:57:13;;;;;;;;;;;;;;;;;;5062561;28;19936;-89
2022/07/07 12:59:44;;;;;;;;;;;;;;;;;;5055615;28;19916;-86
2022/07/07 13:02:10;;;;;;;;;;;;;;;;;;5056961;28;19920;-85
2022/07/07 13:04:35;;;;;;;;;;;;;;;;;;5056989;28;20391;-83
2022/07/07 13:07:04;;;;;;;;;;;;;;;;;;5056348;28;19924;-85
2022/07/07 13:09:29;;;;;;;;;;;;;;;;;;5057180;28;19975;-86
2022/07/07 13:11:54;;;;;;;;;;;;;;;;;;5065640;28;19921;-84
2022/07/07 13:14:41;;;;;;;;;;;;;;;;;;5061538;28;19925;-85
2022/07/07 13:17:07;;;;;;;;;;;;;;;;;;5040958;28;20019;-85
2022/07/07 13:19:32;;;;;;;;;;;;;;;;;;5056468;28;20338;-87
2022/07/07 13:21:57;;;;;;;;;;;;;;;;;;5056708;28;19974;-85
2022/07/07 13:24:23;;;;;;;;;;;;;;;;;;5057287;28;19951;-86
2022/07/07 13:26:48;;;;;;;;;;;;;;;;;;5056775;28;19919;-85
2022/07/07 13:29:17;;;;;;;;;;;;;;;;;;5056548;28;20342;-86
2022/07/07 13:31:42;;;;;;;;;;;;;;;;;;5057602;28;19928;-86
2022/07/07 13:34:08;;;;;;;;;;;;;;;;;;5065161;28;19917;-88
2022/07/07 13:36:33;;;;;;;;;;;;;;;;;;5056689;28;19952;-85
2022/07/07 13:38:58;;;;;;;;;;;;;;;;;;5056580;28;20386;-86
2022/07/07 13:41:23;;;;;;;;;;;;;;;;;;5038696;28;19917;-87
2022/07/07 13:43:49;;;;;;;;;;;;;;;;;;5055297;28;19925;-88
2022/07/07 13:46:14;;;;;;;;;;;;;;;;;;5040480;28;19917;-85
2022/07/07 13:48:40;;;;;;;;;;;;;;;;;;5064183;28;19916;-85
2022/07/07 13:51:05;;;;;;;;;;;;;;;;;;5064420;28;19955;-87
2022/07/07 13:53:30;;;;;;;;;;;;;;;;;;5067510;28;19943;-86
2022/07/07 13:55:56;;;;;;;;;;;;;;;;;;5065063;28;19965;-87
2022/07/07 13:58:21;;;;;;;;;;;;;;;;;;5065597;28;19917;-87
2022/07/07 14:00:46;;;;;;;;;;;;;;;;;;5064503;28;19917;-87
2022/07/07 14:03:11;;;;;;;;;;;;;;;;;;5061761;28;19947;-87
2022/07/07 14:05:37;;;;;;;;;;;;;;;;;;5059414;28;19967;-86
2022/07/07 14:08:02;;;;;;;;;;;;;;;;;;5064168;28;19989;-87
2022/07/07 14:10:27;;;;;;;;;;;;;;;;;;5061537;28;20003;-85
2022/07/07 14:12:53;;;;;;;;;;;;;;;;;;5062289;28;19917;-85
2022/07/07 14:15:19;;;;;;;;;;;;;;;;;;5061604;28;19925;-86
2022/07/07 14:17:45;;;;;;;;;;;;;;;;;;5055557;28;19923;-87
2022/07/07 14:20:10;;;;;;;;;;;;;;;;;;5054877;28;20003;-84
2022/07/07 14:22:36;;;;;;;;;;;;;;;;;;5056392;28;19916;-87
2022/07/07 14:25:02;;;;;;;;;;;;;;;;;;5055872;28;19944;-86
2022/07/07 14:27:28;;;;;;;;;;;;;;;;;;5055789;28;19920;-84
2022/07/07 14:29:54;;;;;;;;;;;;;;;;;;5056548;28;19960;-86
2022/07/07 14:32:19;;;;;;;;;;;;;;;;;;5055823;28;19923;-87
2022/07/07 14:34:45;;;;;;;;;;;;;;;;;;5066491;28;19971;-84
2022/07/07 14:37:11;;;;;;;;;;;;;;;;;;5037373;28;19917;-86
2022/07/07 14:39:36;;;;;;;;;;;;;;;;;;5055222;28;19917;-87
2022/07/07 14:42:02;;;;;;;;;;;;;;;;;;5054992;28;19928;-85
2022/07/07 14:44:27;;;;;;;;;;;;;;;;;;5055237;28;19924;-86
2022/07/07 14:46:52;;;;;;;;;;;;;;;;;;5054740;28;19974;-86
2022/07/07 14:49:18;;;;;;;;;;;;;;;;;;5054978;28;19923;-85
2022/07/07 14:51:44;;;;;;;;;;;;;;;;;;5055053;28;19986;-86
2022/07/07 14:54:09;;;;;;;;;;;;;;;;;;5061802;28;19917;-88
2022/07/07 14:56:34;;;;;;;;;;;;;;;;;;5060891;28;19920;-87
2022/07/07 14:59:00;;;;;;;;;;;;;;;;;;5037122;28;19917;-85
2022/07/07 15:01:25;;;;;;;;;;;;;;;;;;5054575;28;20345;-85
2022/07/07 15:03:50;;;;;;;;;;;;;;;;;;5055349;28;19967;-85
2022/07/07 15:06:15;;;;;;;;;;;;;;;;;;5055159;28;20289;-85
2022/07/07 15:08:41;;;;;;;;;;;;;;;;;;5055759;28;20069;-86
2022/07/07 15:11:06;;;;;;;;;;;;;;;;;;5055130;28;19917;-86
2022/07/07 15:13:32;;;;;;;;;;;;;;;;;;5055107;28;19916;-85
2022/07/07 15:15:57;;;;;;;;;;;;;;;;;;5063529;28;19979;-86
2022/07/07 15:18:24;;;;;;;;;;;;;;;;;;5054975;28;20310;-87
2022/07/07 15:20:50;;;;;;;;;;;;;;;;;;5054668;28;19920;-85
2022/07/07 15:23:16;;;;;;;;;;;;;;;;;;5053370;28;19941;-86
2022/07/07 15:25:42;;;;;;;;;;;;;;;;;;5054421;28;19921;-85
2022/07/07 15:28:07;;;;;;;;;;;;;;;;;;5053477;28;19917;-85
2022/07/07 15:30:35;;;;;;;;;;;;;;;;;;5055381;28;19928;-85
2022/07/07 15:33:00;;;;;;;;;;;;;;;;;;5062229;28;19942;-85
2022/07/07 15:35:25;;;;;;;;;;;;;;;;;;5067834;28;20340;-85
2022/07/07 15:37:50;;;;;;;;;;;;;;;;;;5058659;28;19916;-86
2022/07/07 15:40:16;;;;;;;;;;;;;;;;;;5058790;28;20294;-85
2022/07/07 15:42:41;;;;;;;;;;;;;;;;;;5062596;28;19928;-84
2022/07/07 15:45:06;;;;;;;;;;;;;;;;;;5067985;28;20203;-86
2022/07/07 15:47:32;;;;;;;;;;;;;;;;;;5041145;28;20307;-84
2022/07/07 15:49:57;;;;;;;;;;;;;;;;;;5058464;28;19917;-85
2022/07/07 15:52:22;;;;;;;;;;;;;;;;;;5059078;28;19916;-86
2022/07/07 15:54:48;;;;;;;;;;;;;;;;;;5068193;28;20242;-85
2022/07/07 15:57:13;;;;;;;;;;;;;;;;;;5058732;28;19946;-86
2022/07/07 15:59:38;;;;;;;;;;;;;;;;;;5040539;28;20322;-85
2022/07/07 16:02:05;;;;;;;;;;;;;;;;;;5057911;28;19917;-88
2022/07/07 16:04:33;;;;;;;;;;;;;;;;;;5058414;28;19916;-85
2022/07/07 16:06:59;;;;;;;;;;;;;;;;;;5058191;28;19917;-85
2022/07/07 16:09:24;;;;;;;;;;;;;;;;;;5059016;28;19917;-86
2022/07/07 16:11:50;;;;;;;;;;;;;;;;;;5059030;28;19917;-86
2022/07/07 16:14:15;;;;;;;;;;;;;;;;;;5063620;28;19920;-84
2022/07/07 16:16:41;;;;;;;;;;;;;;;;;;5063193;28;19924;-86
2022/07/07 16:19:06;;;;;;;;;;;;;;;;;;5057284;28;19916;-85
2022/07/07 16:21:32;;;;;;;;;;;;;;;;;;5057572;28;19940;-85
2022/07/07 16:23:58;;;;;;;;;;;;;;;;;;5057862;28;19981;-86
2022/07/07 16:26:24;;;;;;;;;;;;;;;;;;5057392;28;19924;-85
2022/07/07 16:28:49;;;;;;;;;;;;;;;;;;5057199;28;19913;-87
2022/07/07 16:31:18;;;;;;;;;;;;;;;;;;5057906;28;19999;-85
2022/07/07 16:33:43;;;;;;;;;;;;;;;;;;5040788;28;19913;-84
2022/07/07 16:36:09;;;;;;;;;;;;;;;;;;5072109;28;19921;-86
2022/07/07 16:38:35;;;;;;;;;;;;;;;;;;5069667;28;19916;-85
2022/07/07 16:41:00;;;;;;;;;;;;;;;;;;5058434;28;19943;-85
2022/07/07 16:43:31;;;;;;;;;;;;;;;;;;5056295;28;19920;-84